Terminal Aerodrome Forecast
Issued by NWS

Home | Current Version | Previous Version | Text Only | Print | Product List | Glossary Off
Versions: 1 2 3 4 5 6 7 8 9 10 11 12 13 14 15 16 17 18 19 20 21 22 23 24

000
FTUS45 KGGW 231128
TAFOLF
TAF
KOLF 231128Z 2312/2412 23005KT P6SM FEW200
     FM231400 24010KT P6SM SCT100
     FM231700 24018KT P6SM BKN070
     FM240300 25008KT P6SM BKN080=

USA.gov is the U.S. government's official web portal to all federal, state and local government web resources and services.